sensor_id;sensor_type;location;lat;lon;timestamp;P1;durP1;ratioP1;P2;durP2;ratioP2
40653;SDS011;26344;45.532;9.232;2023-03-14T00:00:34;23.60;;;16.20;;
40653;SDS011;26344;45.532;9.232;2023-03-14T00:03:00;20.45;;;15.23;;
40653;SDS011;26344;45.532;9.232;2023-03-14T00:05:27;20.95;;;15.95;;
40653;SDS011;26344;45.532;9.232;2023-03-14T00:07:54;21.45;;;15.25;;
40653;SDS011;26344;45.532;9.232;2023-03-14T00:10:20;20.88;;;15.15;;
40653;SDS011;26344;45.532;9.232;2023-03-14T00:12:46;25.13;;;15.50;;
40653;SDS011;26344;45.532;9.232;2023-03-14T00:15:12;24.50;;;15.20;;
40653;SDS011;26344;45.532;9.232;2023-03-14T00:17:39;27.20;;;15.32;;
40653;SDS011;26344;45.532;9.232;2023-03-14T00:20:10;21.13;;;15.20;;
40653;SDS011;26344;45.532;9.232;2023-03-14T00:22:37;21.00;;;14.88;;
40653;SDS011;26344;45.532;9.232;2023-03-14T00:25:05;23.63;;;14.43;;
40653;SDS011;26344;45.532;9.232;2023-03-14T00:27:34;22.02;;;14.55;;
40653;SDS011;26344;45.532;9.232;2023-03-14T00:30:00;20.75;;;14.00;;
40653;SDS011;26344;45.532;9.232;2023-03-14T00:32:26;23.67;;;15.50;;
40653;SDS011;26344;45.532;9.232;2023-03-14T00:34:52;24.08;;;14.85;;
40653;SDS011;26344;45.532;9.232;2023-03-14T00:37:18;19.38;;;14.00;;
40653;SDS011;26344;45.532;9.232;2023-03-14T00:39:43;24.42;;;14.35;;
40653;SDS011;26344;45.532;9.232;2023-03-14T00:42:09;23.38;;;13.93;;
40653;SDS011;26344;45.532;9.232;2023-03-14T00:44:36;23.05;;;14.93;;
40653;SDS011;26344;45.532;9.232;2023-03-14T00:47:02;24.63;;;13.73;;
40653;SDS011;26344;45.532;9.232;2023-03-14T00:49:27;25.60;;;14.68;;
40653;SDS011;26344;45.532;9.232;2023-03-14T00:51:53;21.00;;;14.45;;
40653;SDS011;26344;45.532;9.232;2023-03-14T00:54:20;22.65;;;14.20;;
40653;SDS011;26344;45.532;9.232;2023-03-14T00:56:46;25.45;;;14.40;;
40653;SDS011;26344;45.532;9.232;2023-03-14T00:59:12;24.92;;;14.02;;
40653;SDS011;26344;45.532;9.232;2023-03-14T01:01:38;21.85;;;13.45;;
40653;SDS011;26344;45.532;9.232;2023-03-14T01:04:04;19.20;;;13.98;;
40653;SDS011;26344;45.532;9.232;2023-03-14T01:06:30;21.75;;;13.73;;
40653;SDS011;26344;45.532;9.232;2023-03-14T01:08:57;19.70;;;13.73;;
40653;SDS011;26344;45.532;9.232;2023-03-14T01:11:27;20.40;;;13.63;;
40653;SDS011;26344;45.532;9.232;2023-03-14T01:13:58;16.90;;;13.27;;
40653;SDS011;26344;45.532;9.232;2023-03-14T01:16:24;22.30;;;13.77;;
40653;SDS011;26344;45.532;9.232;2023-03-14T01:18:51;27.25;;;13.25;;
40653;SDS011;26344;45.532;9.232;2023-03-14T01:21:19;21.10;;;13.07;;
40653;SDS011;26344;45.532;9.232;2023-03-14T01:23:47;21.88;;;13.85;;
40653;SDS011;26344;45.532;9.232;2023-03-14T01:26:14;20.00;;;13.00;;
40653;SDS011;26344;45.532;9.232;2023-03-14T01:28:44;22.48;;;13.40;;
40653;SDS011;26344;45.532;9.232;2023-03-14T01:31:10;20.20;;;13.98;;
40653;SDS011;26344;45.532;9.232;2023-03-14T01:33:38;23.08;;;14.95;;
40653;SDS011;26344;45.532;9.232;2023-03-14T01:36:04;23.02;;;14.32;;
40653;SDS011;26344;45.532;9.232;2023-03-14T01:38:31;21.33;;;14.57;;
40653;SDS011;26344;45.532;9.232;2023-03-14T01:40:57;22.38;;;14.60;;
40653;SDS011;26344;45.532;9.232;2023-03-14T01:43:24;21.48;;;14.40;;
40653;SDS011;26344;45.532;9.232;2023-03-14T01:48:53;19.30;;;14.25;;
40653;SDS011;26344;45.532;9.232;2023-03-14T01:54:23;24.58;;;15.43;;
40653;SDS011;26344;45.532;9.232;2023-03-14T01:57:05;22.48;;;15.02;;
40653;SDS011;26344;45.532;9.232;2023-03-14T01:59:52;19.70;;;14.77;;
40653;SDS011;26344;45.532;9.232;2023-03-14T02:02:21;27.60;;;15.15;;
40653;SDS011;26344;45.532;9.232;2023-03-14T02:04:47;23.63;;;15.38;;
40653;SDS011;26344;45.532;9.232;2023-03-14T02:07:18;19.38;;;14.73;;
40653;SDS011;26344;45.532;9.232;2023-03-14T02:09:50;25.98;;;16.10;;
40653;SDS011;26344;45.532;9.232;2023-03-14T02:12:17;23.17;;;14.88;;
40653;SDS011;26344;45.532;9.232;2023-03-14T02:14:45;21.05;;;15.88;;
40653;SDS011;26344;45.532;9.232;2023-03-14T02:17:13;23.45;;;15.57;;
40653;SDS011;26344;45.532;9.232;2023-03-14T02:19:50;23.25;;;16.33;;
40653;SDS011;26344;45.532;9.232;2023-03-14T02:22:35;19.45;;;15.52;;
40653;SDS011;26344;45.532;9.232;2023-03-14T02:27:31;24.93;;;15.30;;
40653;SDS011;26344;45.532;9.232;2023-03-14T02:30:05;23.67;;;15.48;;
40653;SDS011;26344;45.532;9.232;2023-03-14T02:32:40;22.80;;;15.90;;
40653;SDS011;26344;45.532;9.232;2023-03-14T02:35:11;23.27;;;15.77;;
40653;SDS011;26344;45.532;9.232;2023-03-14T02:37:41;23.52;;;16.13;;
40653;SDS011;26344;45.532;9.232;2023-03-14T02:40:19;24.13;;;15.18;;
40653;SDS011;26344;45.532;9.232;2023-03-14T02:42:45;28.42;;;15.48;;
40653;SDS011;26344;45.532;9.232;2023-03-14T02:47:39;25.08;;;15.48;;
40653;SDS011;26344;45.532;9.232;2023-03-14T02:50:09;26.02;;;15.75;;
40653;SDS011;26344;45.532;9.232;2023-03-14T02:52:37;22.35;;;14.85;;
40653;SDS011;26344;45.532;9.232;2023-03-14T02:55:03;20.38;;;15.20;;
40653;SDS011;26344;45.532;9.232;2023-03-14T02:57:30;24.48;;;15.02;;
40653;SDS011;26344;45.532;9.232;2023-03-14T02:59:59;22.52;;;15.32;;
40653;SDS011;26344;45.532;9.232;2023-03-14T03:02:26;27.45;;;15.23;;
40653;SDS011;26344;45.532;9.232;2023-03-14T03:04:51;21.63;;;14.85;;
40653;SDS011;26344;45.532;9.232;2023-03-14T03:07:17;25.67;;;14.93;;
40653;SDS011;26344;45.532;9.232;2023-03-14T03:09:44;19.73;;;14.35;;
40653;SDS011;26344;45.532;9.232;2023-03-14T03:12:10;23.77;;;13.77;;
40653;SDS011;26344;45.532;9.232;2023-03-14T03:14:36;21.80;;;14.55;;
40653;SDS011;26344;45.532;9.232;2023-03-14T03:17:06;19.52;;;14.00;;
40653;SDS011;26344;45.532;9.232;2023-03-14T03:19:32;22.98;;;15.23;;
40653;SDS011;26344;45.532;9.232;2023-03-14T03:21:59;25.02;;;14.55;;
40653;SDS011;26344;45.532;9.232;2023-03-14T03:24:25;23.75;;;14.55;;
40653;SDS011;26344;45.532;9.232;2023-03-14T03:26:51;20.88;;;14.23;;
40653;SDS011;26344;45.532;9.232;2023-03-14T03:29:17;18.23;;;13.98;;
40653;SDS011;26344;45.532;9.232;2023-03-14T03:31:43;24.63;;;15.02;;
40653;SDS011;26344;45.532;9.232;2023-03-14T03:34:10;22.77;;;15.35;;
40653;SDS011;26344;45.532;9.232;2023-03-14T03:36:37;18.58;;;15.18;;
40653;SDS011;26344;45.532;9.232;2023-03-14T03:39:03;23.00;;;14.82;;
40653;SDS011;26344;45.532;9.232;2023-03-14T03:41:29;22.45;;;14.60;;
40653;SDS011;26344;45.532;9.232;2023-03-14T03:43:55;23.15;;;15.73;;
40653;SDS011;26344;45.532;9.232;2023-03-14T03:46:21;23.85;;;15.05;;
40653;SDS011;26344;45.532;9.232;2023-03-14T03:48:48;23.60;;;14.63;;
40653;SDS011;26344;45.532;9.232;2023-03-14T03:51:14;21.02;;;14.20;;
40653;SDS011;26344;45.532;9.232;2023-03-14T03:53:41;21.48;;;14.85;;
40653;SDS011;26344;45.532;9.232;2023-03-14T03:56:07;23.48;;;15.00;;
40653;SDS011;26344;45.532;9.232;2023-03-14T03:58:34;24.13;;;16.35;;
40653;SDS011;26344;45.532;9.232;2023-03-14T04:01:00;23.92;;;15.07;;
40653;SDS011;26344;45.532;9.232;2023-03-14T04:03:26;22.17;;;15.07;;
40653;SDS011;26344;45.532;9.232;2023-03-14T04:06:05;21.00;;;14.75;;
40653;SDS011;26344;45.532;9.232;2023-03-14T04:08:33;21.30;;;14.70;;
40653;SDS011;26344;45.532;9.232;2023-03-14T04:10:59;20.13;;;14.77;;
40653;SDS011;26344;45.532;9.232;2023-03-14T04:13:26;20.40;;;15.13;;
40653;SDS011;26344;45.532;9.232;2023-03-14T04:15:52;21.55;;;14.52;;
40653;SDS011;26344;45.532;9.232;2023-03-14T04:18:18;23.67;;;15.48;;
40653;SDS011;26344;45.532;9.232;2023-03-14T04:20:44;25.73;;;14.88;;
40653;SDS011;26344;45.532;9.232;2023-03-14T04:23:10;22.55;;;15.02;;
40653;SDS011;26344;45.532;9.232;2023-03-14T04:25:36;21.02;;;15.40;;
40653;SDS011;26344;45.532;9.232;2023-03-14T04:28:02;21.08;;;15.05;;
40653;SDS011;26344;45.532;9.232;2023-03-14T04:30:28;23.92;;;14.93;;
40653;SDS011;26344;45.532;9.232;2023-03-14T04:32:54;21.88;;;15.85;;
40653;SDS011;26344;45.532;9.232;2023-03-14T04:35:20;24.42;;;15.90;;
40653;SDS011;26344;45.532;9.232;2023-03-14T04:37:46;23.58;;;15.90;;
40653;SDS011;26344;45.532;9.232;2023-03-14T04:40:14;23.42;;;15.98;;
40653;SDS011;26344;45.532;9.232;2023-03-14T04:42:40;24.80;;;15.82;;
40653;SDS011;26344;45.532;9.232;2023-03-14T04:45:06;20.95;;;14.38;;
40653;SDS011;26344;45.532;9.232;2023-03-14T04:47:32;22.73;;;15.45;;
40653;SDS011;26344;45.532;9.232;2023-03-14T04:49:58;20.85;;;15.48;;
40653;SDS011;26344;45.532;9.232;2023-03-14T04:52:24;20.20;;;14.48;;
40653;SDS011;26344;45.532;9.232;2023-03-14T04:54:50;23.55;;;15.00;;
40653;SDS011;26344;45.532;9.232;2023-03-14T04:57:16;21.05;;;14.32;;
40653;SDS011;26344;45.532;9.232;2023-03-14T04:59:42;22.85;;;13.50;;
40653;SDS011;26344;45.532;9.232;2023-03-14T05:02:08;19.35;;;13.90;;
40653;SDS011;26344;45.532;9.232;2023-03-14T05:04:34;21.83;;;14.18;;
40653;SDS011;26344;45.532;9.232;2023-03-14T05:07:00;20.85;;;14.32;;
40653;SDS011;26344;45.532;9.232;2023-03-14T05:09:26;20.75;;;14.23;;
40653;SDS011;26344;45.532;9.232;2023-03-14T05:11:52;21.63;;;14.13;;
40653;SDS011;26344;45.532;9.232;2023-03-14T05:14:18;21.98;;;14.77;;
40653;SDS011;26344;45.532;9.232;2023-03-14T05:16:44;21.00;;;13.77;;
40653;SDS011;26344;45.532;9.232;2023-03-14T05:19:10;21.73;;;15.15;;
40653;SDS011;26344;45.532;9.232;2023-03-14T05:21:36;20.60;;;14.00;;
40653;SDS011;26344;45.532;9.232;2023-03-14T05:24:02;20.33;;;13.77;;
40653;SDS011;26344;45.532;9.232;2023-03-14T05:26:29;19.60;;;14.43;;
40653;SDS011;26344;45.532;9.232;2023-03-14T05:28:55;24.73;;;13.85;;
40653;SDS011;26344;45.532;9.232;2023-03-14T05:31:21;19.75;;;14.05;;
40653;SDS011;26344;45.532;9.232;2023-03-14T05:33:47;26.75;;;15.13;;
40653;SDS011;26344;45.532;9.232;2023-03-14T05:36:13;21.80;;;14.52;;
40653;SDS011;26344;45.532;9.232;2023-03-14T05:38:39;17.15;;;13.80;;
40653;SDS011;26344;45.532;9.232;2023-03-14T05:41:05;19.48;;;14.55;;
40653;SDS011;26344;45.532;9.232;2023-03-14T05:43:31;21.70;;;14.45;;
40653;SDS011;26344;45.532;9.232;2023-03-14T05:45:58;22.25;;;14.50;;
40653;SDS011;26344;45.532;9.232;2023-03-14T05:48:24;21.85;;;13.45;;
40653;SDS011;26344;45.532;9.232;2023-03-14T05:50:56;18.17;;;13.77;;
40653;SDS011;26344;45.532;9.232;2023-03-14T05:53:24;21.50;;;14.32;;
40653;SDS011;26344;45.532;9.232;2023-03-14T05:55:53;22.67;;;14.25;;
40653;SDS011;26344;45.532;9.232;2023-03-14T05:58:19;23.40;;;13.73;;
40653;SDS011;26344;45.532;9.232;2023-03-14T06:00:45;19.02;;;13.93;;
40653;SDS011;26344;45.532;9.232;2023-03-14T06:03:15;20.13;;;13.98;;
40653;SDS011;26344;45.532;9.232;2023-03-14T06:05:41;22.33;;;13.48;;
40653;SDS011;26344;45.532;9.232;2023-03-14T06:08:07;20.75;;;13.20;;
40653;SDS011;26344;45.532;9.232;2023-03-14T06:10:34;19.02;;;13.35;;
40653;SDS011;26344;45.532;9.232;2023-03-14T06:13:01;19.40;;;13.63;;
40653;SDS011;26344;45.532;9.232;2023-03-14T06:15:27;19.80;;;13.30;;
40653;SDS011;26344;45.532;9.232;2023-03-14T06:17:54;18.42;;;13.82;;
40653;SDS011;26344;45.532;9.232;2023-03-14T06:20:21;23.55;;;13.68;;
40653;SDS011;26344;45.532;9.232;2023-03-14T06:22:47;17.85;;;12.85;;
40653;SDS011;26344;45.532;9.232;2023-03-14T06:25:13;21.40;;;13.63;;
40653;SDS011;26344;45.532;9.232;2023-03-14T06:27:39;20.92;;;13.85;;
40653;SDS011;26344;45.532;9.232;2023-03-14T06:30:05;19.42;;;13.15;;
40653;SDS011;26344;45.532;9.232;2023-03-14T06:32:31;19.98;;;13.30;;
40653;SDS011;26344;45.532;9.232;2023-03-14T06:34:57;18.70;;;13.13;;
40653;SDS011;26344;45.532;9.232;2023-03-14T06:37:26;19.13;;;12.88;;
40653;SDS011;26344;45.532;9.232;2023-03-14T06:39:51;17.63;;;12.75;;
40653;SDS011;26344;45.532;9.232;2023-03-14T06:42:18;21.27;;;14.18;;
40653;SDS011;26344;45.532;9.232;2023-03-14T06:44:43;23.13;;;13.75;;
40653;SDS011;26344;45.532;9.232;2023-03-14T06:47:09;21.33;;;14.48;;
40653;SDS011;26344;45.532;9.232;2023-03-14T06:49:35;17.90;;;14.50;;
40653;SDS011;26344;45.532;9.232;2023-03-14T06:52:01;22.83;;;13.48;;
40653;SDS011;26344;45.532;9.232;2023-03-14T06:54:27;21.83;;;13.60;;
40653;SDS011;26344;45.532;9.232;2023-03-14T06:56:53;16.70;;;12.77;;
40653;SDS011;26344;45.532;9.232;2023-03-14T06:59:19;19.05;;;13.10;;
40653;SDS011;26344;45.532;9.232;2023-03-14T07:01:44;20.52;;;13.55;;
40653;SDS011;26344;45.532;9.232;2023-03-14T07:04:10;19.75;;;12.98;;
40653;SDS011;26344;45.532;9.232;2023-03-14T07:06:36;21.35;;;13.25;;
40653;SDS011;26344;45.532;9.232;2023-03-14T07:09:04;20.83;;;12.00;;
40653;SDS011;26344;45.532;9.232;2023-03-14T07:11:31;17.42;;;12.35;;
40653;SDS011;26344;45.532;9.232;2023-03-14T07:13:57;19.25;;;13.15;;
40653;SDS011;26344;45.532;9.232;2023-03-14T07:16:23;21.00;;;13.88;;
40653;SDS011;26344;45.532;9.232;2023-03-14T07:18:49;22.67;;;14.10;;
40653;SDS011;26344;45.532;9.232;2023-03-14T07:21:15;17.98;;;13.50;;
40653;SDS011;26344;45.532;9.232;2023-03-14T07:23:41;27.27;;;13.50;;
40653;SDS011;26344;45.532;9.232;2023-03-14T07:26:07;20.42;;;13.80;;
40653;SDS011;26344;45.532;9.232;2023-03-14T07:28:33;19.13;;;13.30;;
40653;SDS011;26344;45.532;9.232;2023-03-14T07:30:59;17.52;;;13.88;;
40653;SDS011;26344;45.532;9.232;2023-03-14T07:33:25;18.23;;;13.32;;
40653;SDS011;26344;45.532;9.232;2023-03-14T07:35:51;22.88;;;14.55;;
40653;SDS011;26344;45.532;9.232;2023-03-14T07:38:17;20.65;;;15.15;;
40653;SDS011;26344;45.532;9.232;2023-03-14T07:40:43;22.05;;;15.90;;
40653;SDS011;26344;45.532;9.232;2023-03-14T07:43:09;27.85;;;18.42;;
40653;SDS011;26344;45.532;9.232;2023-03-14T07:45:36;26.60;;;18.25;;
40653;SDS011;26344;45.532;9.232;2023-03-14T07:48:02;28.27;;;18.25;;
40653;SDS011;26344;45.532;9.232;2023-03-14T07:50:28;26.45;;;18.25;;
40653;SDS011;26344;45.532;9.232;2023-03-14T07:52:54;28.35;;;18.17;;
40653;SDS011;26344;45.532;9.232;2023-03-14T07:55:20;26.30;;;18.40;;
40653;SDS011;26344;45.532;9.232;2023-03-14T07:57:46;26.48;;;17.45;;
40653;SDS011;26344;45.532;9.232;2023-03-14T08:00:12;23.50;;;16.80;;
40653;SDS011;26344;45.532;9.232;2023-03-14T08:02:41;23.00;;;17.48;;
40653;SDS011;26344;45.532;9.232;2023-03-14T08:05:07;21.60;;;16.17;;
40653;SDS011;26344;45.532;9.232;2023-03-14T08:07:34;20.63;;;15.63;;
40653;SDS011;26344;45.532;9.232;2023-03-14T08:10:00;21.48;;;16.13;;
40653;SDS011;26344;45.532;9.232;2023-03-14T08:12:26;23.88;;;17.55;;
40653;SDS011;26344;45.532;9.232;2023-03-14T08:14:53;22.02;;;16.60;;
40653;SDS011;26344;45.532;9.232;2023-03-14T08:17:20;23.65;;;16.17;;
40653;SDS011;26344;45.532;9.232;2023-03-14T08:20:05;24.08;;;16.98;;
40653;SDS011;26344;45.532;9.232;2023-03-14T08:22:33;25.40;;;18.05;;
40653;SDS011;26344;45.532;9.232;2023-03-14T08:24:59;25.20;;;17.60;;
40653;SDS011;26344;45.532;9.232;2023-03-14T08:27:25;28.40;;;17.77;;
40653;SDS011;26344;45.532;9.232;2023-03-14T08:29:51;24.77;;;17.80;;
40653;SDS011;26344;45.532;9.232;2023-03-14T08:32:18;28.00;;;19.38;;
40653;SDS011;26344;45.532;9.232;2023-03-14T08:34:45;26.73;;;18.77;;
40653;SDS011;26344;45.532;9.232;2023-03-14T08:37:11;24.92;;;18.00;;
40653;SDS011;26344;45.532;9.232;2023-03-14T08:39:37;25.90;;;18.65;;
40653;SDS011;26344;45.532;9.232;2023-03-14T08:42:03;25.10;;;19.20;;
40653;SDS011;26344;45.532;9.232;2023-03-14T08:44:29;26.65;;;19.33;;
40653;SDS011;26344;45.532;9.232;2023-03-14T08:46:58;28.42;;;19.30;;
40653;SDS011;26344;45.532;9.232;2023-03-14T08:49:24;27.52;;;19.33;;
40653;SDS011;26344;45.532;9.232;2023-03-14T08:51:50;35.53;;;22.33;;
40653;SDS011;26344;45.532;9.232;2023-03-14T08:57:29;26.25;;;19.38;;
40653;SDS011;26344;45.532;9.232;2023-03-14T09:00:18;32.28;;;21.55;;
40653;SDS011;26344;45.532;9.232;2023-03-14T09:02:44;30.30;;;22.08;;
40653;SDS011;26344;45.532;9.232;2023-03-14T09:05:11;31.30;;;23.05;;
40653;SDS011;26344;45.532;9.232;2023-03-14T09:07:45;30.67;;;21.52;;
40653;SDS011;26344;45.532;9.232;2023-03-14T09:10:11;34.80;;;22.27;;
40653;SDS011;26344;45.532;9.232;2023-03-14T09:12:37;30.45;;;22.05;;
40653;SDS011;26344;45.532;9.232;2023-03-14T09:15:18;30.95;;;21.90;;
40653;SDS011;26344;45.532;9.232;2023-03-14T09:17:50;32.70;;;22.20;;
40653;SDS011;26344;45.532;9.232;2023-03-14T09:20:16;31.75;;;21.48;;
40653;SDS011;26344;45.532;9.232;2023-03-14T09:22:42;29.52;;;19.52;;
40653;SDS011;26344;45.532;9.232;2023-03-14T09:28:31;27.10;;;17.77;;
40653;SDS011;26344;45.532;9.232;2023-03-14T09:31:07;25.27;;;17.67;;
40653;SDS011;26344;45.532;9.232;2023-03-14T09:33:52;25.50;;;16.48;;
40653;SDS011;26344;45.532;9.232;2023-03-14T09:36:18;25.58;;;15.10;;
40653;SDS011;26344;45.532;9.232;2023-03-14T09:38:44;21.92;;;14.50;;
40653;SDS011;26344;45.532;9.232;2023-03-14T09:41:15;22.35;;;14.25;;
40653;SDS011;26344;45.532;9.232;2023-03-14T09:46:53;21.42;;;13.00;;
40653;SDS011;26344;45.532;9.232;2023-03-14T09:49:27;18.90;;;12.00;;
40653;SDS011;26344;45.532;9.232;2023-03-14T09:51:55;19.67;;;12.95;;
40653;SDS011;26344;45.532;9.232;2023-03-14T10:00:03;19.50;;;11.50;;
40653;SDS011;26344;45.532;9.232;2023-03-14T10:02:39;15.02;;;11.10;;
40653;SDS011;26344;45.532;9.232;2023-03-14T10:08:30;16.27;;;9.82;;
40653;SDS011;26344;45.532;9.232;2023-03-14T10:10:56;15.80;;;11.00;;
40653;SDS011;26344;45.532;9.232;2023-03-14T10:13:25;15.88;;;10.68;;
40653;SDS011;26344;45.532;9.232;2023-03-14T10:15:55;13.82;;;10.15;;
40653;SDS011;26344;45.532;9.232;2023-03-14T10:18:29;13.70;;;9.40;;
40653;SDS011;26344;45.532;9.232;2023-03-14T10:21:39;13.68;;;9.00;;
40653;SDS011;26344;45.532;9.232;2023-03-14T10:23:55;13.43;;;8.95;;
40653;SDS011;26344;45.532;9.232;2023-03-14T10:26:53;13.13;;;8.80;;
40653;SDS011;26344;45.532;9.232;2023-03-14T10:29:20;11.70;;;9.20;;
40653;SDS011;26344;45.532;9.232;2023-03-14T10:31:49;12.10;;;8.68;;
40653;SDS011;26344;45.532;9.232;2023-03-14T10:34:17;12.15;;;8.95;;
40653;SDS011;26344;45.532;9.232;2023-03-14T10:36:52;14.10;;;9.60;;
40653;SDS011;26344;45.532;9.232;2023-03-14T10:39:36;14.00;;;9.13;;
40653;SDS011;26344;45.532;9.232;2023-03-14T10:42:50;12.90;;;8.52;;
40653;SDS011;26344;45.532;9.232;2023-03-14T10:48:14;12.90;;;8.70;;
40653;SDS011;26344;45.532;9.232;2023-03-14T10:50:48;11.27;;;8.00;;
40653;SDS011;26344;45.532;9.232;2023-03-14T10:53:23;10.15;;;7.75;;
40653;SDS011;26344;45.532;9.232;2023-03-14T10:55:49;11.70;;;9.25;;
40653;SDS011;26344;45.532;9.232;2023-03-14T10:58:33;12.95;;;9.93;;
40653;SDS011;26344;45.532;9.232;2023-03-14T11:01:25;18.15;;;11.80;;
40653;SDS011;26344;45.532;9.232;2023-03-14T11:31:34;13.85;;;11.35;;
40653;SDS011;26344;45.532;9.232;2023-03-14T11:36:38;15.60;;;11.52;;
40653;SDS011;26344;45.532;9.232;2023-03-14T11:39:19;15.90;;;11.30;;
40653;SDS011;26344;45.532;9.232;2023-03-14T11:41:46;14.23;;;11.38;;
40653;SDS011;26344;45.532;9.232;2023-03-14T11:44:19;16.73;;;11.82;;
40653;SDS011;26344;45.532;9.232;2023-03-14T11:49:53;16.27;;;12.60;;
40653;SDS011;26344;45.532;9.232;2023-03-14T11:52:41;14.77;;;12.40;;
40653;SDS011;26344;45.532;9.232;2023-03-14T11:55:33;18.58;;;13.05;;
40653;SDS011;26344;45.532;9.232;2023-03-14T12:00:53;19.10;;;14.60;;
40653;SDS011;26344;45.532;9.232;2023-03-14T12:06:45;19.25;;;13.30;;
40653;SDS011;26344;45.532;9.232;2023-03-14T12:09:13;18.98;;;12.52;;
40653;SDS011;26344;45.532;9.232;2023-03-14T12:11:44;16.88;;;12.68;;
40653;SDS011;26344;45.532;9.232;2023-03-14T12:16:53;16.23;;;12.52;;
40653;SDS011;26344;45.532;9.232;2023-03-14T12:19:42;15.55;;;12.60;;
40653;SDS011;26344;45.532;9.232;2023-03-14T12:22:20;17.40;;;12.02;;
40653;SDS011;26344;45.532;9.232;2023-03-14T12:25:00;18.83;;;9.75;;
40653;SDS011;26344;45.532;9.232;2023-03-14T12:27:49;13.05;;;8.63;;
40653;SDS011;26344;45.532;9.232;2023-03-14T12:38:10;12.38;;;8.98;;
40653;SDS011;26344;45.532;9.232;2023-03-14T12:40:42;10.35;;;8.15;;
40653;SDS011;26344;45.532;9.232;2023-03-14T12:43:46;9.60;;;7.78;;
40653;SDS011;26344;45.532;9.232;2023-03-14T12:46:06;11.68;;;8.35;;
40653;SDS011;26344;45.532;9.232;2023-03-14T12:51:37;12.30;;;8.48;;
40653;SDS011;26344;45.532;9.232;2023-03-14T13:02:41;10.75;;;7.50;;
40653;SDS011;26344;45.532;9.232;2023-03-14T13:04:45;10.20;;;7.60;;
40653;SDS011;26344;45.532;9.232;2023-03-14T13:12:50;9.95;;;7.40;;
40653;SDS011;26344;45.532;9.232;2023-03-14T13:15:55;10.27;;;7.53;;
40653;SDS011;26344;45.532;9.232;2023-03-14T13:18:43;14.40;;;8.55;;
40653;SDS011;26344;45.532;9.232;2023-03-14T13:21:28;12.70;;;8.73;;
40653;SDS011;26344;45.532;9.232;2023-03-14T13:24:29;11.65;;;8.77;;
40653;SDS011;26344;45.532;9.232;2023-03-14T13:27:17;11.98;;;9.30;;
40653;SDS011;26344;45.532;9.232;2023-03-14T13:29:45;11.93;;;9.63;;
40653;SDS011;26344;45.532;9.232;2023-03-14T13:34:54;13.48;;;10.05;;
40653;SDS011;26344;45.532;9.232;2023-03-14T13:37:25;14.50;;;10.68;;
40653;SDS011;26344;45.532;9.232;2023-03-14T13:44:12;16.40;;;12.45;;
40653;SDS011;26344;45.532;9.232;2023-03-14T13:46:41;19.02;;;12.07;;
40653;SDS011;26344;45.532;9.232;2023-03-14T13:49:11;15.98;;;12.07;;
40653;SDS011;26344;45.532;9.232;2023-03-14T13:51:42;16.42;;;11.98;;
40653;SDS011;26344;45.532;9.232;2023-03-14T13:54:15;18.85;;;12.18;;
40653;SDS011;26344;45.532;9.232;2023-03-14T14:02:31;13.20;;;10.38;;
40653;SDS011;26344;45.532;9.232;2023-03-14T14:05:32;12.70;;;9.98;;
40653;SDS011;26344;45.532;9.232;2023-03-14T14:08:02;13.73;;;9.10;;
40653;SDS011;26344;45.532;9.232;2023-03-14T14:10:29;12.05;;;9.95;;
40653;SDS011;26344;45.532;9.232;2023-03-14T14:13:00;13.80;;;9.18;;
40653;SDS011;26344;45.532;9.232;2023-03-14T14:15:28;12.52;;;10.10;;
40653;SDS011;26344;45.532;9.232;2023-03-14T14:18:20;15.15;;;10.77;;
40653;SDS011;26344;45.532;9.232;2023-03-14T14:20:50;11.48;;;9.05;;
40653;SDS011;26344;45.532;9.232;2023-03-14T14:23:20;11.50;;;9.57;;
40653;SDS011;26344;45.532;9.232;2023-03-14T14:25:51;12.13;;;9.52;;
40653;SDS011;26344;45.532;9.232;2023-03-14T14:28:41;13.43;;;9.82;;
40653;SDS011;26344;45.532;9.232;2023-03-14T14:31:05;13.88;;;9.10;;
40653;SDS011;26344;45.532;9.232;2023-03-14T14:33:58;18.10;;;8.73;;
40653;SDS011;26344;45.532;9.232;2023-03-14T14:39:04;22.50;;;13.35;;
40653;SDS011;26344;45.532;9.232;2023-03-14T14:41:42;21.92;;;13.77;;
40653;SDS011;26344;45.532;9.232;2023-03-14T14:44:10;16.67;;;13.05;;
40653;SDS011;26344;45.532;9.232;2023-03-14T14:46:37;16.55;;;13.18;;
40653;SDS011;26344;45.532;9.232;2023-03-14T14:49:10;20.40;;;14.05;;
40653;SDS011;26344;45.532;9.232;2023-03-14T14:51:43;19.13;;;12.95;;
40653;SDS011;26344;45.532;9.232;2023-03-14T14:54:17;19.38;;;15.00;;
40653;SDS011;26344;45.532;9.232;2023-03-14T14:56:48;16.95;;;13.90;;
40653;SDS011;26344;45.532;9.232;2023-03-14T14:59:20;18.90;;;13.52;;
40653;SDS011;26344;45.532;9.232;2023-03-14T15:02:00;18.95;;;12.75;;
40653;SDS011;26344;45.532;9.232;2023-03-14T15:04:30;15.40;;;12.57;;
40653;SDS011;26344;45.532;9.232;2023-03-14T15:06:56;15.98;;;12.40;;
40653;SDS011;26344;45.532;9.232;2023-03-14T15:09:22;16.30;;;13.15;;
40653;SDS011;26344;45.532;9.232;2023-03-14T15:11:49;12.95;;;11.55;;
40653;SDS011;26344;45.532;9.232;2023-03-14T15:14:15;14.40;;;10.90;;
40653;SDS011;26344;45.532;9.232;2023-03-14T15:16:41;14.45;;;10.95;;
40653;SDS011;26344;45.532;9.232;2023-03-14T15:19:16;15.57;;;11.68;;
40653;SDS011;26344;45.532;9.232;2023-03-14T15:21:45;14.35;;;10.48;;
40653;SDS011;26344;45.532;9.232;2023-03-14T15:24:11;14.60;;;11.55;;
40653;SDS011;26344;45.532;9.232;2023-03-14T15:26:39;14.88;;;11.02;;
40653;SDS011;26344;45.532;9.232;2023-03-14T15:29:05;15.25;;;12.40;;
40653;SDS011;26344;45.532;9.232;2023-03-14T15:31:33;17.08;;;12.32;;
40653;SDS011;26344;45.532;9.232;2023-03-14T15:34:01;15.95;;;12.77;;
40653;SDS011;26344;45.532;9.232;2023-03-14T15:36:29;15.73;;;12.70;;
40653;SDS011;26344;45.532;9.232;2023-03-14T15:41:27;20.23;;;13.85;;
40653;SDS011;26344;45.532;9.232;2023-03-14T15:43:53;18.85;;;14.15;;
40653;SDS011;26344;45.532;9.232;2023-03-14T15:46:19;17.60;;;14.43;;
40653;SDS011;26344;45.532;9.232;2023-03-14T15:48:46;17.42;;;14.70;;
40653;SDS011;26344;45.532;9.232;2023-03-14T15:51:13;17.65;;;14.93;;
40653;SDS011;26344;45.532;9.232;2023-03-14T15:53:42;22.58;;;15.75;;
40653;SDS011;26344;45.532;9.232;2023-03-14T15:56:11;21.27;;;15.90;;
40653;SDS011;26344;45.532;9.232;2023-03-14T15:58:41;22.70;;;17.35;;
40653;SDS011;26344;45.532;9.232;2023-03-14T16:01:11;25.10;;;19.38;;
40653;SDS011;26344;45.532;9.232;2023-03-14T16:03:40;22.52;;;18.13;;
40653;SDS011;26344;45.532;9.232;2023-03-14T16:09:01;23.80;;;18.88;;
40653;SDS011;26344;45.532;9.232;2023-03-14T16:11:29;22.90;;;18.13;;
40653;SDS011;26344;45.532;9.232;2023-03-14T16:13:55;22.10;;;19.15;;
40653;SDS011;26344;45.532;9.232;2023-03-14T16:16:20;23.23;;;18.90;;
40653;SDS011;26344;45.532;9.232;2023-03-14T16:18:46;25.02;;;19.40;;
40653;SDS011;26344;45.532;9.232;2023-03-14T16:21:15;22.67;;;18.52;;
40653;SDS011;26344;45.532;9.232;2023-03-14T16:23:42;24.70;;;17.92;;
40653;SDS011;26344;45.532;9.232;2023-03-14T16:26:11;24.05;;;18.55;;
40653;SDS011;26344;45.532;9.232;2023-03-14T16:28:42;23.52;;;18.35;;
40653;SDS011;26344;45.532;9.232;2023-03-14T16:31:10;21.30;;;18.20;;
40653;SDS011;26344;45.532;9.232;2023-03-14T16:33:40;22.05;;;17.45;;
40653;SDS011;26344;45.532;9.232;2023-03-14T16:36:07;25.05;;;18.42;;